Time;durP1;ratioP1;P1;durP2;ratioP2;P2;SDS_P1;SDS_P2;PMS_P1;PMS_P2;Temp;Humidity;BMP_temperature;BMP_pressure;BME280_temperature;BME280_humidity;BME280_pressure;Samples;Min_cycle;Max_cycle;Signal;HPM_P1;HPM_P2
2023/07/23 00:01:10;;;;;;;4.00;2.60;;;;;;;;;;4964506;28;20414;-87
2023/07/23 00:03:36;;;;;;;4.30;2.23;;;;;;;;;;4948672;28;20450;-86
2023/07/23 00:06:03;;;;;;;3.67;2.30;;;;;;;;;;4941382;28;20444;-87
2023/07/23 00:08:29;;;;;;;4.77;2.20;;;;;;;;;;4951379;28;20433;-87
2023/07/23 00:10:58;;;;;;;3.80;2.30;;;;;;;;;;4949424;28;20425;-87
2023/07/23 00:13:24;;;;;;;2.70;2.27;;;;;;;;;;4948970;28;20506;-86
2023/07/23 00:15:50;;;;;;;3.60;2.40;;;;;;;;;;4947893;28;20939;-87
2023/07/23 00:18:16;;;;;;;6.40;3.20;;;;;;;;;;4946987;28;20410;-87
2023/07/23 00:20:42;;;;;;;4.57;2.73;;;;;;;;;;4949299;28;20441;-86
2023/07/23 00:23:08;;;;;;;2.13;1.60;;;;;;;;;;4948434;28;20856;-87
2023/07/23 00:25:34;;;;;;;4.60;3.00;;;;;;;;;;4963351;28;20473;-87
2023/07/23 00:28:00;;;;;;;5.50;3.10;;;;;;;;;;4948818;28;20433;-87
2023/07/23 00:30:26;;;;;;;8.63;3.30;;;;;;;;;;4963239;28;20414;-86
2023/07/23 00:32:52;;;;;;;6.10;3.60;;;;;;;;;;4949020;28;20465;-87
2023/07/23 00:35:20;;;;;;;5.13;2.50;;;;;;;;;;4944887;28;20512;-87
2023/07/23 00:37:46;;;;;;;5.17;3.53;;;;;;;;;;4964885;28;20421;-88
2023/07/23 00:40:12;;;;;;;4.97;3.10;;;;;;;;;;4941349;28;20501;-87
2023/07/23 00:42:38;;;;;;;6.87;3.00;;;;;;;;;;4963353;28;20437;-87
2023/07/23 00:45:04;;;;;;;5.00;2.43;;;;;;;;;;4945333;28;20461;-86
2023/07/23 00:47:30;;;;;;;5.00;3.77;;;;;;;;;;4951653;28;20437;-87
2023/07/23 00:49:57;;;;;;;4.60;2.20;;;;;;;;;;4964941;28;20418;-87
2023/07/23 00:52:23;;;;;;;4.10;2.23;;;;;;;;;;4949086;28;20918;-87
2023/07/23 00:54:49;;;;;;;3.87;2.37;;;;;;;;;;4945038;28;20453;-87
2023/07/23 00:57:15;;;;;;;2.50;1.70;;;;;;;;;;4940720;28;20449;-87
2023/07/23 00:59:41;;;;;;;3.63;2.33;;;;;;;;;;4950080;29;21128;-89
2023/07/23 01:02:07;;;;;;;3.23;2.13;;;;;;;;;;4932190;29;20470;-89
2023/07/23 01:04:33;;;;;;;3.63;2.30;;;;;;;;;;4947994;28;20466;-90
2023/07/23 01:07:00;;;;;;;3.50;1.93;;;;;;;;;;4948487;29;20458;-90
2023/07/23 01:09:26;;;;;;;4.30;2.77;;;;;;;;;;4954168;28;20457;-89
2023/07/23 01:11:52;;;;;;;3.50;2.63;;;;;;;;;;4947781;28;20427;-89
2023/07/23 01:14:18;;;;;;;5.23;2.70;;;;;;;;;;4941987;28;20461;-89
2023/07/23 01:16:44;;;;;;;4.03;2.10;;;;;;;;;;4950263;28;20477;-89
2023/07/23 01:19:12;;;;;;;4.50;2.83;;;;;;;;;;4948570;28;20446;-89
2023/07/23 01:21:38;;;;;;;3.83;2.90;;;;;;;;;;4948187;28;20953;-90
2023/07/23 01:24:04;;;;;;;2.33;2.07;;;;;;;;;;4950167;28;20543;-89
2023/07/23 01:26:30;;;;;;;3.83;2.27;;;;;;;;;;4949160;28;20418;-90
2023/07/23 01:28:57;;;;;;;3.57;2.50;;;;;;;;;;4949264;28;20436;-91
2023/07/23 01:31:23;;;;;;;3.90;2.67;;;;;;;;;;4948794;28;20432;-89
2023/07/23 01:33:50;;;;;;;3.00;2.17;;;;;;;;;;4950938;28;20513;-89
2023/07/23 01:36:16;;;;;;;3.63;2.20;;;;;;;;;;4933136;29;20490;-90
2023/07/23 01:38:42;;;;;;;4.60;2.80;;;;;;;;;;4975201;28;20444;-89
2023/07/23 01:41:08;;;;;;;4.27;2.60;;;;;;;;;;4968297;28;20438;-90
2023/07/23 01:43:34;;;;;;;4.47;2.63;;;;;;;;;;4960273;28;20459;-89
2023/07/23 01:46:00;;;;;;;3.00;2.20;;;;;;;;;;4971280;28;20437;-89
2023/07/23 01:48:26;;;;;;;3.23;2.57;;;;;;;;;;4955375;29;20445;-88
2023/07/23 01:50:52;;;;;;;3.53;2.67;;;;;;;;;;4947342;28;20434;-88
2023/07/23 01:53:18;;;;;;;4.30;3.10;;;;;;;;;;4965578;28;20783;-89
2023/07/23 01:55:44;;;;;;;4.00;2.30;;;;;;;;;;4951350;28;20466;-89
2023/07/23 01:58:10;;;;;;;6.73;2.50;;;;;;;;;;4949709;28;20821;-89
2023/07/23 02:00:36;;;;;;;3.50;2.60;;;;;;;;;;4963526;28;20481;-88
2023/07/23 02:03:02;;;;;;;6.37;3.10;;;;;;;;;;4965087;28;20406;-90
2023/07/23 02:05:29;;;;;;;3.13;1.93;;;;;;;;;;4951357;28;20446;-89
2023/07/23 02:07:55;;;;;;;4.57;2.80;;;;;;;;;;4947698;28;20430;-89
2023/07/23 02:10:21;;;;;;;3.27;2.20;;;;;;;;;;4951198;28;20826;-89
2023/07/23 02:12:47;;;;;;;3.87;2.70;;;;;;;;;;4951495;28;20413;-90
2023/07/23 02:15:13;;;;;;;2.63;2.30;;;;;;;;;;4955522;28;20450;-89
2023/07/23 02:17:39;;;;;;;3.60;2.47;;;;;;;;;;4948782;28;20418;-89
2023/07/23 02:20:06;;;;;;;2.97;1.80;;;;;;;;;;4948312;28;20444;-89
2023/07/23 02:22:32;;;;;;;3.23;2.27;;;;;;;;;;4954359;28;20422;-88
2023/07/23 02:24:58;;;;;;;2.90;2.30;;;;;;;;;;4965475;28;20464;-89
2023/07/23 02:27:24;;;;;;;4.37;2.40;;;;;;;;;;4948364;28;20434;-89
2023/07/23 02:29:50;;;;;;;3.90;2.37;;;;;;;;;;4954252;28;20440;-89
2023/07/23 02:32:16;;;;;;;3.40;2.30;;;;;;;;;;4945676;28;20434;-89
2023/07/23 02:34:42;;;;;;;3.00;2.20;;;;;;;;;;4965329;28;20409;-90
2023/07/23 02:37:08;;;;;;;3.40;2.37;;;;;;;;;;4944363;29;20435;-87
2023/07/23 02:39:37;;;;;;;3.70;2.47;;;;;;;;;;4933899;29;20442;-86
2023/07/23 02:42:03;;;;;;;4.80;2.23;;;;;;;;;;4940997;28;20541;-86
2023/07/23 02:44:29;;;;;;;3.77;2.37;;;;;;;;;;4946569;28;20468;-86
2023/07/23 02:46:55;;;;;;;3.50;2.60;;;;;;;;;;4948589;28;20449;-87
2023/07/23 02:49:21;;;;;;;4.03;2.83;;;;;;;;;;4960627;28;20808;-86
2023/07/23 02:51:47;;;;;;;3.70;2.63;;;;;;;;;;4962659;28;20477;-86
2023/07/23 02:54:13;;;;;;;2.50;2.17;;;;;;;;;;4976085;28;20430;-86
2023/07/23 02:56:39;;;;;;;5.47;2.30;;;;;;;;;;4962874;28;20446;-87
2023/07/23 02:59:04;;;;;;;3.70;2.23;;;;;;;;;;4935518;28;20516;-87
2023/07/23 03:01:31;;;;;;;4.73;2.67;;;;;;;;;;4961926;28;20414;-87
2023/07/23 03:03:57;;;;;;;2.20;1.87;;;;;;;;;;4963903;28;20461;-87
2023/07/23 03:06:23;;;;;;;5.50;2.97;;;;;;;;;;4943348;29;20489;-86
2023/07/23 03:08:49;;;;;;;3.97;2.10;;;;;;;;;;4936002;28;20427;-87
2023/07/23 03:11:15;;;;;;;2.70;2.30;;;;;;;;;;4964453;28;20437;-88
2023/07/23 03:13:41;;;;;;;3.80;3.00;;;;;;;;;;4947284;28;20477;-87
2023/07/23 03:16:07;;;;;;;2.77;2.07;;;;;;;;;;4962797;28;20406;-87
2023/07/23 03:18:33;;;;;;;6.80;2.67;;;;;;;;;;4947773;28;20449;-86
2023/07/23 03:20:59;;;;;;;4.20;2.33;;;;;;;;;;4952970;28;20437;-87
2023/07/23 03:23:26;;;;;;;3.97;2.67;;;;;;;;;;4936199;29;20430;-87
2023/07/23 03:25:52;;;;;;;3.10;2.20;;;;;;;;;;4942683;29;20407;-87
2023/07/23 03:28:18;;;;;;;6.70;2.27;;;;;;;;;;4944781;29;20422;-87
2023/07/23 03:30:44;;;;;;;2.60;2.30;;;;;;;;;;4956465;28;20422;-88
2023/07/23 03:33:10;;;;;;;4.00;2.40;;;;;;;;;;4962458;28;20461;-89
2023/07/23 03:35:36;;;;;;;4.47;2.90;;;;;;;;;;4947067;28;20406;-90
2023/07/23 03:38:02;;;;;;;3.43;2.53;;;;;;;;;;4964721;28;20430;-90
2023/07/23 03:40:27;;;;;;;2.73;2.10;;;;;;;;;;4949630;28;20436;-91
2023/07/23 03:42:53;;;;;;;4.60;1.80;;;;;;;;;;4959918;28;20943;-90
2023/07/23 03:45:19;;;;;;;7.63;2.83;;;;;;;;;;4946927;28;20856;-90
2023/07/23 03:47:45;;;;;;;3.10;2.37;;;;;;;;;;4948781;28;20465;-90
2023/07/23 03:50:11;;;;;;;3.77;2.43;;;;;;;;;;4950034;28;20430;-91
2023/07/23 03:52:37;;;;;;;4.47;2.30;;;;;;;;;;4963779;28;20425;-91
2023/07/23 03:55:03;;;;;;;3.20;2.40;;;;;;;;;;4947590;28;20414;-90
2023/07/23 03:57:29;;;;;;;3.07;2.30;;;;;;;;;;4949024;28;20406;-90
2023/07/23 03:59:55;;;;;;;4.53;2.63;;;;;;;;;;4948881;28;20440;-91
2023/07/23 04:02:21;;;;;;;4.53;2.60;;;;;;;;;;4965250;28;20425;-90
2023/07/23 04:04:47;;;;;;;6.30;2.50;;;;;;;;;;4949038;28;20453;-90
2023/07/23 04:07:13;;;;;;;3.40;2.07;;;;;;;;;;4948111;28;20434;-91
2023/07/23 04:09:39;;;;;;;4.63;2.60;;;;;;;;;;4949176;28;20429;-90
2023/07/23 04:12:05;;;;;;;3.40;2.20;;;;;;;;;;4967479;28;20473;-91
2023/07/23 04:14:32;;;;;;;4.20;2.53;;;;;;;;;;4954083;28;20421;-91
2023/07/23 04:16:58;;;;;;;4.97;2.50;;;;;;;;;;4952717;28;20422;-89
2023/07/23 04:19:24;;;;;;;4.07;2.80;;;;;;;;;;4948725;28;20560;-90
2023/07/23 04:21:50;;;;;;;5.73;2.73;;;;;;;;;;4950717;28;20447;-90
2023/07/23 04:24:16;;;;;;;3.00;2.40;;;;;;;;;;4950272;28;20454;-90
2023/07/23 04:26:42;;;;;;;4.40;2.50;;;;;;;;;;4916102;29;20448;-89
2023/07/23 04:29:08;;;;;;;3.63;2.67;;;;;;;;;;4893657;29;20479;-90
2023/07/23 04:31:34;;;;;;;2.77;2.37;;;;;;;;;;4891360;29;20444;-91
2023/07/23 04:34:00;;;;;;;3.70;2.00;;;;;;;;;;4893853;29;20457;-88
2023/07/23 04:36:28;;;;;;;4.10;2.40;;;;;;;;;;4893580;29;20518;-90
2023/07/23 04:38:54;;;;;;;2.87;2.20;;;;;;;;;;4891131;29;20989;-90
2023/07/23 04:41:20;;;;;;;3.83;2.30;;;;;;;;;;4900505;29;20440;-88
2023/07/23 04:43:46;;;;;;;3.70;2.53;;;;;;;;;;4905771;29;20456;-88
2023/07/23 04:46:12;;;;;;;3.87;2.90;;;;;;;;;;4906857;29;20440;-88
2023/07/23 04:48:38;;;;;;;3.93;2.90;;;;;;;;;;4911840;29;20442;-88
2023/07/23 04:51:05;;;;;;;3.50;2.43;;;;;;;;;;4897355;29;20448;-88
2023/07/23 04:53:31;;;;;;;4.33;2.27;;;;;;;;;;4906402;29;20487;-88
2023/07/23 04:55:59;;;;;;;3.20;2.30;;;;;;;;;;4895900;29;20442;-88
2023/07/23 04:58:25;;;;;;;9.63;3.00;;;;;;;;;;4923437;28;20459;-89
2023/07/23 05:00:51;;;;;;;4.27;2.37;;;;;;;;;;4943941;28;20424;-90
2023/07/23 05:03:18;;;;;;;4.80;2.30;;;;;;;;;;4960610;28;20438;-89
2023/07/23 05:05:45;;;;;;;4.27;2.60;;;;;;;;;;4954964;28;20460;-87
2023/07/23 05:08:11;;;;;;;5.90;3.03;;;;;;;;;;4978383;28;20427;-88
2023/07/23 05:10:37;;;;;;;3.13;2.37;;;;;;;;;;4947306;28;21201;-88
2023/07/23 05:13:03;;;;;;;4.37;2.67;;;;;;;;;;4947702;28;20854;-88
2023/07/23 05:15:29;;;;;;;3.00;2.00;;;;;;;;;;4945997;29;20498;-88
2023/07/23 05:17:55;;;;;;;3.23;2.10;;;;;;;;;;4945351;29;20925;-88
2023/07/23 05:20:21;;;;;;;3.30;2.13;;;;;;;;;;4943371;29;20415;-88
2023/07/23 05:22:47;;;;;;;3.20;2.00;;;;;;;;;;4948913;28;20770;-88
2023/07/23 05:25:13;;;;;;;3.57;2.30;;;;;;;;;;4963314;28;20461;-88
2023/07/23 05:27:39;;;;;;;3.43;2.30;;;;;;;;;;4965478;28;20854;-88
2023/07/23 05:30:05;;;;;;;3.30;2.17;;;;;;;;;;4945964;28;20430;-88
2023/07/23 05:32:32;;;;;;;3.87;2.67;;;;;;;;;;4946692;28;20446;-88
2023/07/23 05:34:58;;;;;;;3.67;2.13;;;;;;;;;;4947708;28;20430;-88
2023/07/23 05:37:24;;;;;;;3.30;2.20;;;;;;;;;;4949985;28;20428;-88
2023/07/23 05:39:52;;;;;;;2.43;1.60;;;;;;;;;;4960307;28;20574;-89
2023/07/23 05:42:18;;;;;;;3.40;2.50;;;;;;;;;;4970696;28;20568;-91
2023/07/23 05:44:45;;;;;;;3.63;2.50;;;;;;;;;;4968438;28;20507;-91
2023/07/23 05:47:11;;;;;;;5.43;2.47;;;;;;;;;;4965717;28;20437;-90
2023/07/23 05:49:37;;;;;;;3.63;1.87;;;;;;;;;;4947329;28;20976;-91
2023/07/23 05:52:03;;;;;;;3.80;1.90;;;;;;;;;;4951212;28;20468;-90
2023/07/23 05:54:29;;;;;;;3.70;2.63;;;;;;;;;;4944635;28;20496;-90
2023/07/23 05:56:55;;;;;;;3.73;2.30;;;;;;;;;;4972861;28;20921;-88
2023/07/23 05:59:21;;;;;;;4.50;2.60;;;;;;;;;;4948060;29;20427;-90
2023/07/23 06:01:47;;;;;;;2.83;2.30;;;;;;;;;;4939875;28;20512;-91
2023/07/23 06:04:13;;;;;;;3.40;2.37;;;;;;;;;;4949135;28;20470;-90
2023/07/23 06:06:40;;;;;;;4.20;2.70;;;;;;;;;;4947817;28;20418;-89
2023/07/23 06:09:06;;;;;;;3.70;2.40;;;;;;;;;;4943214;29;20462;-90
2023/07/23 06:11:32;;;;;;;3.70;2.60;;;;;;;;;;4974481;28;20452;-90
2023/07/23 06:14:02;;;;;;;4.33;2.30;;;;;;;;;;4951242;28;20422;-90
2023/07/23 06:16:28;;;;;;;4.47;2.53;;;;;;;;;;4949515;28;20422;-91
2023/07/23 06:18:53;;;;;;;5.37;2.53;;;;;;;;;;4947281;28;20441;-88
2023/07/23 06:21:19;;;;;;;3.90;2.50;;;;;;;;;;4947355;28;20492;-90
2023/07/23 06:23:47;;;;;;;3.23;2.50;;;;;;;;;;4961323;28;20489;-90
2023/07/23 06:26:13;;;;;;;3.40;2.53;;;;;;;;;;4968487;28;20421;-91
2023/07/23 06:28:39;;;;;;;4.87;2.83;;;;;;;;;;4949925;28;20434;-90
2023/07/23 06:31:06;;;;;;;3.10;2.50;;;;;;;;;;4965162;28;20426;-91
2023/07/23 06:33:32;;;;;;;3.43;2.20;;;;;;;;;;4957520;28;20421;-91
2023/07/23 06:35:58;;;;;;;4.40;2.83;;;;;;;;;;4955238;29;20439;-90
2023/07/23 06:38:24;;;;;;;3.40;2.17;;;;;;;;;;4944736;28;20434;-90
2023/07/23 06:40:54;;;;;;;3.20;2.40;;;;;;;;;;4947732;28;20417;-91
2023/07/23 06:43:20;;;;;;;3.27;2.67;;;;;;;;;;4940955;28;20552;-90
2023/07/23 06:45:46;;;;;;;3.20;2.50;;;;;;;;;;4936513;29;21049;-90
2023/07/23 06:48:13;;;;;;;5.03;3.23;;;;;;;;;;4928407;28;20462;-90
2023/07/23 06:50:39;;;;;;;3.17;2.20;;;;;;;;;;4954113;28;20409;-91
2023/07/23 06:53:05;;;;;;;3.57;2.77;;;;;;;;;;4947702;28;20930;-88
2023/07/23 06:55:31;;;;;;;3.40;2.60;;;;;;;;;;4945912;28;20458;-88
2023/07/23 06:57:57;;;;;;;2.87;2.43;;;;;;;;;;4945823;28;20450;-88
2023/07/23 07:00:23;;;;;;;3.73;2.73;;;;;;;;;;4948893;28;20429;-89
2023/07/23 07:02:49;;;;;;;2.83;2.10;;;;;;;;;;4944427;28;20929;-89
2023/07/23 07:05:15;;;;;;;3.27;2.23;;;;;;;;;;4954208;28;20463;-88
2023/07/23 07:07:41;;;;;;;4.10;2.40;;;;;;;;;;4934762;28;20427;-89
2023/07/23 07:10:07;;;;;;;3.60;2.47;;;;;;;;;;4947136;28;20418;-90
2023/07/23 07:12:34;;;;;;;4.50;2.70;;;;;;;;;;4954140;28;20437;-90
2023/07/23 07:15:00;;;;;;;3.70;2.80;;;;;;;;;;4960006;28;20425;-90
2023/07/23 07:17:26;;;;;;;4.60;2.80;;;;;;;;;;4964592;28;20425;-87
2023/07/23 07:19:52;;;;;;;3.23;2.70;;;;;;;;;;4964778;28;20435;-88
2023/07/23 07:22:17;;;;;;;2.80;2.20;;;;;;;;;;4937584;28;20980;-91
2023/07/23 07:24:43;;;;;;;3.50;2.73;;;;;;;;;;4963030;28;20540;-90
2023/07/23 07:27:10;;;;;;;3.33;2.53;;;;;;;;;;4939498;28;20423;-91
2023/07/23 07:29:39;;;;;;;3.33;2.23;;;;;;;;;;4951143;28;20428;-90
2023/07/23 07:32:05;;;;;;;5.47;2.43;;;;;;;;;;4944431;29;20522;-90
2023/07/23 07:34:31;;;;;;;4.87;2.80;;;;;;;;;;4936009;28;20442;-90
2023/07/23 07:36:57;;;;;;;4.03;2.97;;;;;;;;;;4967953;28;20448;-90
2023/07/23 07:39:23;;;;;;;3.73;2.20;;;;;;;;;;4948663;28;20433;-90
2023/07/23 07:41:49;;;;;;;3.60;2.93;;;;;;;;;;4950692;28;20450;-90
2023/07/23 07:44:15;;;;;;;5.53;3.10;;;;;;;;;;4947504;28;20468;-89
2023/07/23 07:46:41;;;;;;;3.30;2.40;;;;;;;;;;4956934;28;20437;-90
2023/07/23 07:49:07;;;;;;;3.80;2.67;;;;;;;;;;4959784;28;20930;-89
2023/07/23 07:51:33;;;;;;;3.90;2.50;;;;;;;;;;4950699;28;20414;-90
2023/07/23 07:53:59;;;;;;;3.17;2.20;;;;;;;;;;4950020;28;20517;-89
2023/07/23 07:56:25;;;;;;;3.20;2.63;;;;;;;;;;4951105;28;20471;-89
2023/07/23 07:58:51;;;;;;;4.80;2.17;;;;;;;;;;4948814;28;20517;-90
2023/07/23 08:01:17;;;;;;;3.90;2.47;;;;;;;;;;4951673;28;20466;-89
2023/07/23 08:03:43;;;;;;;2.90;2.00;;;;;;;;;;4963631;28;20430;-89
2023/07/23 08:06:09;;;;;;;4.27;2.43;;;;;;;;;;4949651;28;20417;-89
2023/07/23 08:08:37;;;;;;;3.20;1.93;;;;;;;;;;4949225;28;20457;-90
2023/07/23 08:11:03;;;;;;;3.70;2.73;;;;;;;;;;4950396;28;20435;-90
2023/07/23 08:13:29;;;;;;;3.60;2.47;;;;;;;;;;4952111;28;20450;-91
2023/07/23 08:15:55;;;;;;;3.40;2.37;;;;;;;;;;4946511;28;20426;-90
2023/07/23 08:18:21;;;;;;;4.03;2.53;;;;;;;;;;4949936;28;20437;-89
2023/07/23 08:20:48;;;;;;;3.27;2.20;;;;;;;;;;4943885;28;20520;-89
2023/07/23 08:23:14;;;;;;;4.20;2.00;;;;;;;;;;4951988;28;20897;-90
2023/07/23 08:25:40;;;;;;;3.70;2.03;;;;;;;;;;4952825;28;20484;-89
2023/07/23 08:28:07;;;;;;;3.10;2.20;;;;;;;;;;4943747;28;20442;-90
2023/07/23 08:30:33;;;;;;;2.93;2.03;;;;;;;;;;4950144;28;20442;-89
2023/07/23 08:33:00;;;;;;;3.20;2.03;;;;;;;;;;4951425;28;20422;-89
2023/07/23 08:35:26;;;;;;;2.87;2.17;;;;;;;;;;4966176;28;20441;-89
2023/07/23 08:37:52;;;;;;;3.60;2.10;;;;;;;;;;4967439;28;20434;-90
2023/07/23 08:40:19;;;;;;;3.10;2.30;;;;;;;;;;4947392;28;20438;-89
2023/07/23 08:42:54;;;;;;;2.30;1.50;;;;;;;;;;4952290;28;20432;-90
2023/07/23 08:45:29;;;;;;;2.90;2.00;;;;;;;;;;4951971;29;20462;-89
2023/07/23 08:48:15;;;;;;;2.90;2.03;;;;;;;;;;4946613;28;20421;-89
2023/07/23 08:50:43;;;;;;;4.70;2.00;;;;;;;;;;4960071;28;20430;-89
2023/07/23 08:53:09;;;;;;;2.93;2.10;;;;;;;;;;4947021;29;20435;-89
2023/07/23 08:55:35;;;;;;;3.00;2.10;;;;;;;;;;4938583;28;20958;-88
2023/07/23 08:58:01;;;;;;;3.00;1.80;;;;;;;;;;4950139;28;20477;-89
2023/07/23 09:00:28;;;;;;;3.10;2.17;;;;;;;;;;4950162;28;20438;-90
2023/07/23 09:02:54;;;;;;;3.00;1.90;;;;;;;;;;4951871;28;20574;-90
2023/07/23 09:05:20;;;;;;;3.57;2.00;;;;;;;;;;4949473;28;20463;-91
2023/07/23 09:07:47;;;;;;;3.10;2.33;;;;;;;;;;4965903;28;20409;-91
2023/07/23 09:10:13;;;;;;;3.70;2.07;;;;;;;;;;4953561;28;20436;-91
2023/07/23 09:12:42;;;;;;;3.43;2.20;;;;;;;;;;4949112;28;20510;-91
2023/07/23 09:15:08;;;;;;;3.00;2.10;;;;;;;;;;4948746;28;20429;-90
2023/07/23 09:17:34;;;;;;;3.00;2.40;;;;;;;;;;4950964;28;20414;-91
2023/07/23 09:20:01;;;;;;;2.80;1.93;;;;;;;;;;4953278;28;20469;-91
2023/07/23 09:22:31;;;;;;;3.20;2.40;;;;;;;;;;4944442;28;20801;-89
2023/07/23 09:25:01;;;;;;;2.73;1.83;;;;;;;;;;4947716;28;20492;-91
2023/07/23 09:27:41;;;;;;;2.60;1.63;;;;;;;;;;4949368;28;20467;-89
2023/07/23 09:30:07;;;;;;;2.67;1.60;;;;;;;;;;4945156;28;20430;-92
2023/07/23 09:32:33;;;;;;;2.87;1.80;;;;;;;;;;4956800;28;20402;-90
2023/07/23 09:35:00;;;;;;;2.70;1.90;;;;;;;;;;4950664;28;20414;-90
2023/07/23 09:37:29;;;;;;;4.30;2.30;;;;;;;;;;4952469;28;20433;-90
2023/07/23 09:39:56;;;;;;;3.50;2.10;;;;;;;;;;4951858;28;20461;-91
2023/07/23 09:42:25;;;;;;;3.93;2.13;;;;;;;;;;4954542;28;20828;-91
2023/07/23 09:44:51;;;;;;;3.93;2.40;;;;;;;;;;4961875;28;20446;-91
2023/07/23 09:47:23;;;;;;;2.97;1.27;;;;;;;;;;4983257;28;20409;-90
2023/07/23 09:49:49;;;;;;;2.57;1.90;;;;;;;;;;4956004;28;20489;-90
2023/07/23 09:52:15;;;;;;;2.93;1.73;;;;;;;;;;4954252;28;20410;-90
2023/07/23 09:54:41;;;;;;;3.80;2.00;;;;;;;;;;4942996;28;20434;-90
2023/07/23 09:57:07;;;;;;;2.90;1.90;;;;;;;;;;4949150;28;20445;-91
2023/07/23 09:59:33;;;;;;;3.00;1.77;;;;;;;;;;4946585;28;20619;-90
2023/07/23 10:01:59;;;;;;;3.50;2.10;;;;;;;;;;4949449;28;20453;-91
2023/07/23 10:04:25;;;;;;;3.20;2.10;;;;;;;;;;4950426;28;20460;-90
2023/07/23 10:06:51;;;;;;;3.30;1.47;;;;;;;;;;4959445;28;20437;-90
2023/07/23 10:09:19;;;;;;;4.20;2.23;;;;;;;;;;4969677;28;20429;-89
2023/07/23 10:11:46;;;;;;;3.03;2.00;;;;;;;;;;4953841;28;20484;-90
2023/07/23 10:14:12;;;;;;;4.53;2.10;;;;;;;;;;4945675;28;20775;-89
2023/07/23 10:16:38;;;;;;;3.30;2.30;;;;;;;;;;4957286;28;20450;-91
2023/07/23 10:19:04;;;;;;;2.90;2.07;;;;;;;;;;4954214;28;20449;-89
2023/07/23 10:21:31;;;;;;;2.90;2.00;;;;;;;;;;4971218;28;20441;-89
2023/07/23 10:23:57;;;;;;;3.37;1.97;;;;;;;;;;4949621;28;20464;-89
2023/07/23 10:26:24;;;;;;;2.90;1.90;;;;;;;;;;4951098;28;20441;-89
2023/07/23 10:28:50;;;;;;;2.50;1.80;;;;;;;;;;4951267;28;20587;-90
2023/07/23 10:31:20;;;;;;;3.53;2.20;;;;;;;;;;4962659;28;20507;-89
2023/07/23 10:33:47;;;;;;;3.10;1.93;;;;;;;;;;4996142;28;20401;-89
2023/07/23 10:36:13;;;;;;;3.23;1.90;;;;;;;;;;4947899;28;20435;-90
2023/07/23 10:38:39;;;;;;;3.23;2.40;;;;;;;;;;4945777;28;20415;-89
2023/07/23 10:41:06;;;;;;;4.27;2.17;;;;;;;;;;4951114;28;20493;-90
2023/07/23 10:43:43;;;;;;;3.00;2.13;;;;;;;;;;4948020;28;20441;-91
2023/07/23 10:46:10;;;;;;;3.50;2.13;;;;;;;;;;4946016;28;20442;-90
2023/07/23 10:48:40;;;;;;;4.43;2.90;;;;;;;;;;4947648;28;20441;-90
2023/07/23 10:51:13;;;;;;;4.50;2.03;;;;;;;;;;4959026;28;20441;-90
2023/07/23 10:53:55;;;;;;;3.20;2.13;;;;;;;;;;4959229;28;20447;-91
2023/07/23 10:56:41;;;;;;;6.00;2.97;;;;;;;;;;4974010;28;20445;-91
2023/07/23 10:59:07;;;;;;;3.20;2.27;;;;;;;;;;4984077;28;20443;-89
2023/07/23 11:01:35;;;;;;;3.70;2.83;;;;;;;;;;4980544;28;20450;-90
2023/07/23 11:04:01;;;;;;;3.80;2.67;;;;;;;;;;4961193;28;20460;-90
2023/07/23 11:06:28;;;;;;;4.60;2.40;;;;;;;;;;4946330;28;20521;-90
2023/07/23 11:08:55;;;;;;;3.50;1.97;;;;;;;;;;4950736;28;20446;-91
2023/07/23 11:11:24;;;;;;;2.90;1.90;;;;;;;;;;4942952;28;20437;-91
2023/07/23 11:13:50;;;;;;;3.67;2.00;;;;;;;;;;4967784;28;20434;-90
2023/07/23 11:16:16;;;;;;;3.13;2.03;;;;;;;;;;4946695;28;20458;-90
2023/07/23 11:18:43;;;;;;;6.20;2.80;;;;;;;;;;4952043;28;20449;-90
2023/07/23 11:21:14;;;;;;;3.37;1.83;;;;;;;;;;4947048;29;20442;-90
2023/07/23 11:23:40;;;;;;;3.33;2.27;;;;;;;;;;4946887;28;20984;-90
2023/07/23 11:26:06;;;;;;;3.83;2.70;;;;;;;;;;4968269;28;20445;-91
2023/07/23 11:28:32;;;;;;;4.40;2.80;;;;;;;;;;4952344;28;20465;-91
2023/07/23 11:31:01;;;;;;;4.30;2.17;;;;;;;;;;4953961;28;20430;-91
2023/07/23 11:33:30;;;;;;;4.23;3.27;;;;;;;;;;4945979;28;20471;-90
2023/07/23 11:35:56;;;;;;;3.70;2.63;;;;;;;;;;4951002;28;20941;-91
2023/07/23 11:38:31;;;;;;;4.40;3.10;;;;;;;;;;4951734;28;20459;-91
2023/07/23 11:40:59;;;;;;;6.67;2.50;;;;;;;;;;4962081;28;20431;-91
2023/07/23 11:43:25;;;;;;;7.43;2.30;;;;;;;;;;4944635;28;20497;-89
2023/07/23 11:45:51;;;;;;;3.33;2.60;;;;;;;;;;4949773;28;20501;-90
2023/07/23 11:48:22;;;;;;;5.50;2.40;;;;;;;;;;4952849;28;20416;-89
2023/07/23 11:50:48;;;;;;;4.20;2.37;;;;;;;;;;4962495;28;20536;-90
2023/07/23 11:53:14;;;;;;;3.53;2.40;;;;;;;;;;4943853;29;20493;-90
2023/07/23 11:55:40;;;;;;;3.77;2.70;;;;;;;;;;4948070;28;20615;-89
2023/07/23 11:58:06;;;;;;;3.77;3.07;;;;;;;;;;4953807;28;20897;-90
2023/07/23 12:00:33;;;;;;;4.30;2.70;;;;;;;;;;4949738;28;20942;-90
2023/07/23 12:02:59;;;;;;;4.00;2.70;;;;;;;;;;4955307;29;20460;-90
2023/07/23 12:05:25;;;;;;;3.93;2.40;;;;;;;;;;4957729;28;20462;-90
2023/07/23 12:07:54;;;;;;;3.50;2.50;;;;;;;;;;4951621;28;20414;-90
2023/07/23 12:10:20;;;;;;;4.43;2.00;;;;;;;;;;4956805;28;20454;-90
2023/07/23 12:12:49;;;;;;;3.70;2.73;;;;;;;;;;4951351;28;20441;-90
2023/07/23 12:15:15;;;;;;;4.20;3.33;;;;;;;;;;4965345;28;20417;-90
2023/07/23 12:17:42;;;;;;;4.13;2.30;;;;;;;;;;4944988;28;20419;-91
2023/07/23 12:20:09;;;;;;;4.07;2.53;;;;;;;;;;4950618;28;20445;-90
2023/07/23 12:22:48;;;;;;;3.77;2.60;;;;;;;;;;4949087;28;20458;-92
2023/07/23 12:25:14;;;;;;;3.50;2.23;;;;;;;;;;4966811;28;20469;-90
2023/07/23 12:27:40;;;;;;;3.90;2.40;;;;;;;;;;4964662;28;20426;-89
2023/07/23 12:30:06;;;;;;;3.70;2.30;;;;;;;;;;4945319;28;20422;-89
2023/07/23 12:32:34;;;;;;;3.83;2.60;;;;;;;;;;4949914;28;20438;-90
2023/07/23 12:35:00;;;;;;;3.37;2.27;;;;;;;;;;4966815;28;20446;-91
2023/07/23 12:37:30;;;;;;;2.93;2.00;;;;;;;;;;4949709;28;20429;-92
2023/07/23 12:39:56;;;;;;;3.60;2.97;;;;;;;;;;4958655;28;20772;-91
2023/07/23 12:42:22;;;;;;;3.07;2.27;;;;;;;;;;4948292;28;20931;-90
2023/07/23 12:44:48;;;;;;;2.80;2.23;;;;;;;;;;4953269;28;20577;-91
2023/07/23 12:47:14;;;;;;;2.63;2.10;;;;;;;;;;4948749;28;20421;-91
2023/07/23 12:49:40;;;;;;;4.37;2.57;;;;;;;;;;4947542;28;20465;-88
2023/07/23 12:52:07;;;;;;;3.20;2.50;;;;;;;;;;4943055;28;20438;-89
2023/07/23 12:54:34;;;;;;;4.37;2.50;;;;;;;;;;4946835;28;21385;-90
2023/07/23 12:57:01;;;;;;;3.67;2.67;;;;;;;;;;4945456;28;20449;-87
2023/07/23 12:59:27;;;;;;;6.30;2.50;;;;;;;;;;4947096;28;20849;-89
2023/07/23 13:01:53;;;;;;;4.03;2.87;;;;;;;;;;4946793;28;20426;-90
2023/07/23 13:04:19;;;;;;;5.13;2.70;;;;;;;;;;4965173;28;20468;-91
2023/07/23 13:06:45;;;;;;;3.20;2.63;;;;;;;;;;4945778;28;20448;-91
2023/07/23 13:09:11;;;;;;;3.43;2.63;;;;;;;;;;4947429;28;20517;-91
2023/07/23 13:11:37;;;;;;;3.53;2.60;;;;;;;;;;4943489;28;20450;-90
2023/07/23 13:14:03;;;;;;;3.27;2.20;;;;;;;;;;4948450;28;20426;-91
2023/07/23 13:16:29;;;;;;;4.60;2.83;;;;;;;;;;4948789;28;20461;-89
2023/07/23 13:18:55;;;;;;;3.47;2.43;;;;;;;;;;4947483;28;20446;-90
2023/07/23 13:21:21;;;;;;;4.60;2.53;;;;;;;;;;4960998;28;20449;-89
2023/07/23 13:23:48;;;;;;;3.93;2.77;;;;;;;;;;4948117;28;20436;-89
2023/07/23 13:26:14;;;;;;;5.20;2.80;;;;;;;;;;4960428;28;20418;-89
2023/07/23 13:28:40;;;;;;;6.43;3.57;;;;;;;;;;4935841;29;20522;-90
2023/07/23 13:31:06;;;;;;;4.80;3.30;;;;;;;;;;4904198;29;21014;-90
2023/07/23 13:33:32;;;;;;;3.67;2.53;;;;;;;;;;4919493;29;20547;-88
2023/07/23 13:35:58;;;;;;;3.20;2.33;;;;;;;;;;4935561;29;20416;-88
2023/07/23 13:38:24;;;;;;;4.80;2.40;;;;;;;;;;4917353;29;20509;-90
2023/07/23 13:40:53;;;;;;;3.97;2.33;;;;;;;;;;4915508;29;20884;-88
2023/07/23 13:43:22;;;;;;;5.03;3.03;;;;;;;;;;4931348;29;20504;-89
2023/07/23 13:45:49;;;;;;;4.30;3.00;;;;;;;;;;4917451;29;20487;-89
2023/07/23 13:48:15;;;;;;;3.97;3.07;;;;;;;;;;4884555;29;20480;-90
2023/07/23 13:50:42;;;;;;;3.20;2.47;;;;;;;;;;4884135;29;20422;-90
2023/07/23 13:53:08;;;;;;;3.90;2.33;;;;;;;;;;4906507;29;20492;-89
2023/07/23 13:55:34;;;;;;;3.50;2.43;;;;;;;;;;4886613;29;20445;-91
2023/07/23 13:58:00;;;;;;;4.70;2.87;;;;;;;;;;4888830;29;20819;-91
2023/07/23 14:00:26;;;;;;;6.40;3.00;;;;;;;;;;4903005;29;20447;-89
2023/07/23 14:02:55;;;;;;;5.10;3.60;;;;;;;;;;4924358;29;20808;-90
2023/07/23 14:05:25;;;;;;;4.83;3.10;;;;;;;;;;4893744;29;21033;-90
2023/07/23 14:07:55;;;;;;;5.40;3.20;;;;;;;;;;4888554;29;20529;-91
2023/07/23 14:10:24;;;;;;;4.30;3.47;;;;;;;;;;4887597;29;20497;-91
2023/07/23 14:12:50;;;;;;;4.70;3.30;;;;;;;;;;4886643;29;20474;-90
2023/07/23 14:15:16;;;;;;;4.40;3.30;;;;;;;;;;4872990;29;20437;-90
2023/07/23 14:17:46;;;;;;;5.00;3.77;;;;;;;;;;4876977;29;20421;-88
2023/07/23 14:20:13;;;;;;;4.80;3.00;;;;;;;;;;4904598;29;20527;-90
2023/07/23 14:22:39;;;;;;;4.63;3.20;;;;;;;;;;4922044;29;20451;-90
2023/07/23 14:25:16;;;;;;;5.90;3.50;;;;;;;;;;4911830;29;20450;-89
2023/07/23 14:27:42;;;;;;;4.57;3.40;;;;;;;;;;4906690;29;20440;-89
2023/07/23 14:30:09;;;;;;;5.30;3.13;;;;;;;;;;4922042;29;20432;-87
2023/07/23 14:32:35;;;;;;;4.43;3.60;;;;;;;;;;4897734;29;20555;-89
2023/07/23 14:35:02;;;;;;;4.90;3.70;;;;;;;;;;4905624;29;20463;-90
2023/07/23 14:37:28;;;;;;;3.43;2.63;;;;;;;;;;4947307;28;20444;-90
2023/07/23 14:39:54;;;;;;;4.70;3.40;;;;;;;;;;4947086;28;20441;-90